Time;durP1;ratioP1;P1;durP2;ratioP2;P2;SDS_P1;SDS_P2;PMS_P1;PMS_P2;Temp;Humidity;BMP_temperature;BMP_pressure;BME280_temperature;BME280_humidity;BME280_pressure;Samples;Min_cycle;Max_cycle;Signal;HPM_P1;HPM_P2
2024/02/17 00:00:55;;;;;;;1.10;1.10;;;10.70;99.90;;;;;;5096568;28;20252;-84
2024/02/17 00:03:23;;;;;;;2.05;1.92;;;10.70;99.90;;;;;;5084798;28;20198;-85
2024/02/17 00:05:51;;;;;;;0.70;0.70;;;10.70;99.90;;;;;;5094468;28;20222;-85
2024/02/17 00:08:18;;;;;;;0.75;0.75;;;10.70;99.90;;;;;;5064816;28;20199;-85
2024/02/17 00:10:45;;;;;;;2.70;1.70;;;10.80;99.90;;;;;;5092460;28;20243;-85
2024/02/17 00:13:12;;;;;;;1.45;1.35;;;10.70;99.90;;;;;;5101357;28;20515;-84
2024/02/17 00:15:39;;;;;;;1.63;1.55;;;10.60;99.90;;;;;;5082411;28;20286;-85
2024/02/17 00:18:07;;;;;;;0.70;0.70;;;10.60;99.90;;;;;;5101095;28;20234;-84
2024/02/17 00:20:34;;;;;;;0.77;0.77;;;10.60;99.90;;;;;;5100450;28;20199;-84
2024/02/17 00:23:02;;;;;;;3.25;3.10;;;10.60;99.90;;;;;;5093418;28;20270;-85
2024/02/17 00:25:29;;;;;;;0.50;0.50;;;10.70;99.90;;;;;;5090449;28;20209;-84
2024/02/17 00:27:56;;;;;;;1.35;1.33;;;10.80;99.90;;;;;;5068191;28;20202;-84
2024/02/17 00:30:23;;;;;;;3.35;2.83;;;10.70;99.90;;;;;;5101424;28;20226;-83
2024/02/17 00:32:50;;;;;;;0.60;0.60;;;10.80;99.90;;;;;;5085984;28;20414;-84
2024/02/17 00:35:17;;;;;;;0.50;0.50;;;10.80;99.90;;;;;;5093638;28;20309;-84
2024/02/17 00:37:46;;;;;;;2.13;1.98;;;10.70;99.90;;;;;;5089562;28;20201;-83
2024/02/17 00:40:15;;;;;;;1.95;1.85;;;10.60;99.90;;;;;;5104097;28;20195;-84
2024/02/17 00:42:42;;;;;;;0.77;0.77;;;10.60;99.90;;;;;;5084646;28;20398;-84
2024/02/17 00:45:09;;;;;;;0.82;0.82;;;10.50;99.90;;;;;;5094053;28;20221;-83
2024/02/17 00:47:36;;;;;;;0.93;0.93;;;10.70;99.90;;;;;;5096235;28;20257;-84
2024/02/17 00:50:05;;;;;;;1.38;1.38;;;10.60;99.90;;;;;;5093197;28;20451;-84
2024/02/17 00:52:32;;;;;;;0.75;0.75;;;10.60;99.90;;;;;;5101695;28;20206;-84
2024/02/17 00:54:59;;;;;;;1.35;1.35;;;10.70;99.90;;;;;;5093001;28;20201;-84
2024/02/17 00:57:28;;;;;;;0.70;0.70;;;10.70;99.90;;;;;;5086375;28;20226;-84
2024/02/17 00:59:55;;;;;;;0.90;0.90;;;10.70;99.90;;;;;;5089050;28;20268;-83
2024/02/17 01:02:22;;;;;;;2.67;2.28;;;10.60;99.90;;;;;;5085168;28;20231;-84
2024/02/17 01:04:51;;;;;;;1.05;1.05;;;10.60;99.90;;;;;;5101675;28;20196;-83
2024/02/17 01:07:18;;;;;;;2.47;2.38;;;10.60;99.90;;;;;;5097165;28;20213;-84
2024/02/17 01:09:45;;;;;;;1.33;1.27;;;10.60;99.90;;;;;;5085211;28;20261;-84
2024/02/17 01:12:12;;;;;;;0.60;0.60;;;10.50;99.90;;;;;;5085188;28;20421;-83
2024/02/17 01:14:39;;;;;;;1.27;1.27;;;10.60;99.90;;;;;;5069272;28;20207;-85
2024/02/17 01:17:06;;;;;;;0.98;0.98;;;10.70;99.90;;;;;;5066366;28;20283;-84
2024/02/17 01:19:33;;;;;;;1.60;1.60;;;10.70;99.90;;;;;;5069292;28;20212;-84
2024/02/17 01:22:01;;;;;;;0.80;0.80;;;10.70;99.90;;;;;;5062402;28;20222;-83
2024/02/17 01:24:28;;;;;;;0.70;0.70;;;10.70;99.90;;;;;;5086009;28;20207;-83
2024/02/17 01:26:55;;;;;;;2.90;2.70;;;10.60;99.90;;;;;;5085176;28;20562;-84
2024/02/17 01:29:22;;;;;;;1.23;1.23;;;10.60;99.90;;;;;;5100249;28;20200;-84
2024/02/17 01:31:51;;;;;;;0.70;0.70;;;10.60;99.90;;;;;;5098779;28;20257;-84
2024/02/17 01:34:20;;;;;;;1.63;1.52;;;10.50;99.90;;;;;;5071921;28;20239;-85
2024/02/17 01:36:48;;;;;;;2.75;2.65;;;10.60;99.90;;;;;;5071595;28;20222;-85
2024/02/17 01:39:15;;;;;;;1.40;1.40;;;10.80;99.90;;;;;;5084646;28;20202;-85
2024/02/17 01:41:42;;;;;;;1.15;1.10;;;10.70;99.90;;;;;;5093782;28;20199;-85
2024/02/17 01:44:10;;;;;;;1.40;1.40;;;10.60;99.90;;;;;;5068510;28;20223;-83
2024/02/17 01:46:38;;;;;;;1.73;1.55;;;10.60;99.90;;;;;;5096886;28;20265;-84
2024/02/17 01:49:05;;;;;;;0.70;0.70;;;10.60;99.90;;;;;;5078947;28;20223;-84
2024/02/17 01:51:33;;;;;;;1.17;1.17;;;10.60;99.90;;;;;;5086777;28;20212;-82
2024/02/17 01:54:01;;;;;;;0.85;0.85;;;10.70;99.90;;;;;;5079612;28;20199;-83
2024/02/17 01:56:32;;;;;;;1.95;1.85;;;10.70;99.90;;;;;;5071007;28;20535;-83
2024/02/17 01:58:59;;;;;;;1.65;1.60;;;10.70;99.90;;;;;;5085525;28;20271;-84
2024/02/17 02:01:27;;;;;;;1.35;1.33;;;10.90;99.90;;;;;;5086371;28;20229;-83
2024/02/17 02:03:54;;;;;;;0.80;0.80;;;10.80;99.90;;;;;;5090982;28;20188;-83
2024/02/17 02:06:23;;;;;;;1.88;1.80;;;10.70;99.90;;;;;;5094935;28;20187;-83
2024/02/17 02:08:51;;;;;;;2.45;2.35;;;10.80;99.90;;;;;;5094944;28;20199;-83
2024/02/17 02:11:19;;;;;;;0.60;0.60;;;10.80;99.90;;;;;;5090691;28;20195;-84
2024/02/17 02:13:47;;;;;;;1.63;1.52;;;10.70;99.90;;;;;;5089812;28;20202;-84
2024/02/17 02:16:16;;;;;;;3.28;3.08;;;10.70;99.90;;;;;;5082630;28;20225;-83
2024/02/17 02:18:43;;;;;;;1.98;1.23;;;10.70;99.90;;;;;;5076504;28;20213;-83
2024/02/17 02:21:10;;;;;;;1.05;1.05;;;10.70;99.90;;;;;;5067224;28;20223;-82
2024/02/17 02:23:37;;;;;;;3.72;3.47;;;10.70;99.90;;;;;;5078874;28;20228;-84
2024/02/17 02:26:04;;;;;;;1.25;1.15;;;10.70;99.90;;;;;;5098701;28;20213;-83
2024/02/17 02:28:31;;;;;;;1.33;1.33;;;10.60;99.90;;;;;;5106871;28;20216;-85
2024/02/17 02:30:59;;;;;;;0.70;0.70;;;10.50;99.90;;;;;;5107054;28;20220;-84
2024/02/17 02:33:26;;;;;;;0.85;0.85;;;10.50;99.90;;;;;;5084168;28;20199;-85
2024/02/17 02:35:53;;;;;;;0.50;0.50;;;10.50;99.90;;;;;;5095581;28;20264;-85
2024/02/17 02:38:20;;;;;;;1.45;1.45;;;10.50;99.90;;;;;;5088753;28;20198;-82
2024/02/17 02:40:47;;;;;;;0.70;0.70;;;10.40;99.90;;;;;;5095980;28;20265;-82
2024/02/17 02:43:14;;;;;;;1.75;1.65;;;10.20;99.90;;;;;;5092315;28;20226;-82
2024/02/17 02:45:41;;;;;;;1.02;1.02;;;10.10;99.90;;;;;;5098373;28;20419;-81
2024/02/17 02:48:08;;;;;;;1.80;1.70;;;9.90;99.90;;;;;;5082429;28;20195;-81
2024/02/17 02:50:36;;;;;;;1.42;1.38;;;9.80;99.90;;;;;;5089212;28;20191;-81
2024/02/17 02:53:03;;;;;;;1.63;1.48;;;9.70;99.90;;;;;;5090968;28;20234;-82
2024/02/17 02:55:29;;;;;;;2.88;2.13;;;9.50;99.90;;;;;;5098827;28;20229;-82
2024/02/17 02:57:56;;;;;;;2.83;1.73;;;9.50;99.90;;;;;;5087712;28;20222;-81
2024/02/17 03:00:24;;;;;;;1.90;1.80;;;9.50;99.90;;;;;;5062940;28;20200;-81
2024/02/17 03:02:51;;;;;;;4.63;1.77;;;9.40;99.90;;;;;;5094134;28;20205;-81
2024/02/17 03:05:18;;;;;;;2.17;2.08;;;9.40;99.90;;;;;;5073923;28;20262;-80
2024/02/17 03:07:45;;;;;;;0.60;0.60;;;9.30;99.90;;;;;;5089668;28;20199;-81
2024/02/17 03:10:12;;;;;;;2.05;1.95;;;9.20;99.90;;;;;;5081636;28;20265;-81
2024/02/17 03:12:41;;;;;;;1.25;1.25;;;9.20;99.90;;;;;;5089952;28;20222;-80
2024/02/17 03:15:09;;;;;;;3.10;1.73;;;9.20;99.90;;;;;;5069851;28;20195;-81
2024/02/17 03:17:36;;;;;;;3.03;2.83;;;9.20;99.90;;;;;;5064120;28;20264;-81
2024/02/17 03:20:07;;;;;;;4.00;3.72;;;9.20;99.90;;;;;;5086920;28;20266;-81
2024/02/17 03:22:35;;;;;;;1.90;1.80;;;9.20;99.90;;;;;;5082163;28;20206;-81
2024/02/17 03:25:02;;;;;;;2.40;2.10;;;9.10;99.90;;;;;;5089551;28;20199;-80
2024/02/17 03:27:29;;;;;;;2.13;1.23;;;9.10;99.90;;;;;;5088142;28;20298;-80
2024/02/17 03:29:56;;;;;;;1.65;1.60;;;9.10;99.90;;;;;;5074444;28;20202;-81
2024/02/17 03:32:23;;;;;;;1.42;0.77;;;9.10;99.90;;;;;;5113835;28;20224;-81
2024/02/17 03:34:51;;;;;;;2.40;2.30;;;9.10;99.90;;;;;;5110484;28;20253;-81
2024/02/17 03:37:19;;;;;;;6.05;3.58;;;9.10;99.90;;;;;;5081510;28;20226;-80
2024/02/17 03:39:46;;;;;;;1.52;1.45;;;9.10;99.90;;;;;;5098602;28;20225;-80
2024/02/17 03:42:14;;;;;;;2.88;2.17;;;9.00;99.90;;;;;;5084257;28;20203;-80
2024/02/17 03:44:41;;;;;;;2.15;1.48;;;9.00;99.90;;;;;;5091063;28;20203;-80
2024/02/17 03:47:08;;;;;;;2.58;2.47;;;9.00;99.90;;;;;;5093299;28;20210;-82
2024/02/17 03:49:35;;;;;;;1.23;0.88;;;9.00;99.90;;;;;;5089130;28;20278;-81
2024/02/17 03:52:03;;;;;;;1.95;1.85;;;9.00;99.90;;;;;;5097874;28;20209;-81
2024/02/17 03:54:30;;;;;;;0.60;0.60;;;9.00;99.90;;;;;;5095243;28;20229;-82
2024/02/17 03:56:58;;;;;;;2.65;1.63;;;9.00;99.90;;;;;;5101965;28;20229;-82
2024/02/17 03:59:25;;;;;;;2.22;2.05;;;9.10;99.90;;;;;;5102802;28;20232;-81
2024/02/17 04:01:55;;;;;;;1.40;1.30;;;8.90;99.90;;;;;;5082179;28;20241;-82
2024/02/17 04:04:22;;;;;;;1.88;1.80;;;8.90;99.90;;;;;;5090073;28;20265;-81
2024/02/17 04:06:50;;;;;;;8.25;3.17;;;8.90;99.90;;;;;;5088206;28;20207;-83
2024/02/17 04:09:17;;;;;;;2.90;1.77;;;8.90;99.90;;;;;;5091224;28;20195;-81
2024/02/17 04:11:44;;;;;;;0.80;0.80;;;8.80;99.90;;;;;;5087189;28;20199;-81
2024/02/17 04:14:12;;;;;;;1.63;1.52;;;8.80;99.90;;;;;;5089880;28;20218;-81
2024/02/17 04:16:39;;;;;;;1.90;1.80;;;8.90;99.90;;;;;;5098981;28;20598;-82
2024/02/17 04:19:06;;;;;;;3.33;3.13;;;8.90;99.90;;;;;;5067372;28;20245;-81
2024/02/17 04:21:33;;;;;;;2.00;1.90;;;8.90;99.90;;;;;;5089139;28;20309;-79
2024/02/17 04:24:00;;;;;;;1.90;1.80;;;8.90;99.90;;;;;;5066514;28;20205;-81
2024/02/17 04:26:29;;;;;;;2.78;2.38;;;8.90;99.90;;;;;;5084379;28;20376;-81
2024/02/17 04:28:56;;;;;;;3.53;3.33;;;8.90;99.90;;;;;;5099041;28;20206;-81
2024/02/17 04:31:23;;;;;;;2.28;2.17;;;8.90;99.90;;;;;;5090352;28;20211;-81
2024/02/17 04:33:50;;;;;;;2.45;1.80;;;8.90;99.90;;;;;;5092338;28;20245;-80
2024/02/17 04:36:17;;;;;;;2.15;2.05;;;8.90;99.90;;;;;;5067542;28;20380;-82
2024/02/17 04:38:44;;;;;;;7.70;2.15;;;8.90;99.90;;;;;;5098388;28;20245;-81
2024/02/17 04:41:14;;;;;;;3.22;2.72;;;8.90;99.90;;;;;;5084753;28;20399;-81
2024/02/17 04:43:44;;;;;;;2.75;2.65;;;8.90;99.90;;;;;;5087349;28;20267;-81
2024/02/17 04:46:11;;;;;;;2.20;2.00;;;8.90;99.90;;;;;;5081832;28;20198;-81
2024/02/17 04:48:38;;;;;;;2.65;2.30;;;8.90;99.90;;;;;;5090018;28;20210;-82
2024/02/17 04:51:05;;;;;;;2.95;2.72;;;8.90;99.90;;;;;;5100268;28;20525;-81
2024/02/17 04:53:32;;;;;;;2.60;2.10;;;8.90;99.90;;;;;;5097297;28;20198;-80
2024/02/17 04:55:59;;;;;;;1.35;1.25;;;8.90;99.90;;;;;;5096846;28;20294;-81
2024/02/17 04:58:26;;;;;;;1.60;1.50;;;8.90;99.90;;;;;;5090277;28;20232;-81
2024/02/17 05:00:53;;;;;;;5.20;4.70;;;8.90;99.90;;;;;;5076979;28;20199;-81
2024/02/17 05:03:25;;;;;;;2.92;2.75;;;8.90;99.90;;;;;;5089351;28;20199;-82
2024/02/17 05:05:53;;;;;;;2.33;2.15;;;8.90;99.90;;;;;;5091584;28;20484;-81
2024/02/17 05:08:20;;;;;;;1.52;1.52;;;8.90;99.90;;;;;;5089191;28;20237;-80
2024/02/17 05:10:47;;;;;;;2.88;2.75;;;8.90;99.90;;;;;;5088307;28;20237;-81
2024/02/17 05:13:14;;;;;;;1.10;1.10;;;8.80;99.90;;;;;;5065439;28;20195;-81
2024/02/17 05:15:43;;;;;;;2.67;2.58;;;8.80;99.90;;;;;;5089774;28;20229;-81
2024/02/17 05:18:11;;;;;;;2.30;2.20;;;8.90;99.90;;;;;;5095317;28;20293;-81
2024/02/17 05:20:38;;;;;;;2.90;2.65;;;8.80;99.90;;;;;;5090049;28;20274;-81
2024/02/17 05:23:05;;;;;;;2.00;1.90;;;8.80;99.90;;;;;;5083425;28;20262;-81
2024/02/17 05:25:32;;;;;;;3.72;3.47;;;8.80;99.90;;;;;;5082458;28;20262;-81
2024/02/17 05:27:58;;;;;;;1.75;1.65;;;8.80;99.90;;;;;;5090490;28;20203;-81
2024/02/17 05:30:25;;;;;;;3.33;3.13;;;8.80;99.90;;;;;;5085912;28;20198;-81
2024/02/17 05:32:53;;;;;;;3.13;2.75;;;8.80;99.90;;;;;;5098799;28;20424;-82
2024/02/17 05:35:20;;;;;;;1.77;1.67;;;8.80;99.90;;;;;;5093907;28;20206;-81
2024/02/17 05:37:47;;;;;;;1.95;1.85;;;8.80;99.90;;;;;;5083335;28;20527;-82
2024/02/17 05:40:14;;;;;;;2.25;2.15;;;8.80;99.90;;;;;;5069210;28;20226;-80
2024/02/17 05:42:43;;;;;;;2.08;1.98;;;8.80;99.90;;;;;;5105351;28;20395;-81
2024/02/17 05:45:12;;;;;;;2.65;2.45;;;8.70;99.90;;;;;;5075292;28;20195;-80
2024/02/17 05:47:40;;;;;;;0.50;0.50;;;8.70;99.90;;;;;;5091495;28;20249;-81
2024/02/17 05:50:07;;;;;;;2.22;2.13;;;8.80;99.90;;;;;;5092272;28;20262;-81
2024/02/17 05:52:35;;;;;;;2.05;1.95;;;8.70;99.90;;;;;;5082789;28;20214;-81
2024/02/17 05:55:02;;;;;;;3.47;3.00;;;8.70;99.90;;;;;;5087140;28;20222;-80
2024/02/17 05:57:29;;;;;;;2.83;1.88;;;8.70;99.90;;;;;;5074569;28;20447;-80
2024/02/17 05:59:57;;;;;;;2.22;2.13;;;8.60;99.90;;;;;;5095094;28;20199;-82
2024/02/17 06:02:24;;;;;;;4.13;3.30;;;8.60;99.90;;;;;;5087459;28;20200;-81
2024/02/17 06:04:51;;;;;;;3.95;3.70;;;8.70;99.90;;;;;;5091006;28;20199;-81
2024/02/17 06:07:19;;;;;;;3.25;3.05;;;8.80;99.90;;;;;;5095334;28;20202;-80
2024/02/17 06:09:47;;;;;;;2.15;2.05;;;8.60;99.90;;;;;;5095325;28;20218;-81
2024/02/17 06:12:15;;;;;;;2.72;2.00;;;8.70;99.90;;;;;;5096381;28;20206;-81
2024/02/17 06:14:42;;;;;;;2.65;2.55;;;8.70;99.90;;;;;;5093586;28;20206;-81
2024/02/17 06:17:10;;;;;;;1.75;1.65;;;8.80;99.90;;;;;;5076012;28;20413;-82
2024/02/17 06:22:23;;;;;;;3.08;2.80;;;8.80;99.90;;;;;;5080706;28;20495;-81
2024/02/17 06:24:50;;;;;;;2.42;2.20;;;8.80;99.90;;;;;;5085353;28;20198;-81
2024/02/17 06:27:17;;;;;;;2.88;2.78;;;8.80;99.90;;;;;;5093911;28;20206;-82
2024/02/17 06:29:44;;;;;;;9.43;3.45;;;8.90;99.90;;;;;;5075686;28;20200;-82
2024/02/17 06:32:11;;;;;;;2.85;1.67;;;8.80;99.90;;;;;;5078128;28;20210;-81
2024/02/17 06:34:41;;;;;;;1.83;1.73;;;8.90;99.90;;;;;;5077654;28;20217;-82
2024/02/17 06:37:08;;;;;;;1.83;1.73;;;8.90;99.90;;;;;;5081864;28;20284;-80
2024/02/17 06:39:35;;;;;;;2.38;2.28;;;9.00;99.90;;;;;;5079417;28;20512;-81
2024/02/17 06:42:03;;;;;;;3.60;3.35;;;8.90;99.90;;;;;;5091934;28;20229;-82
2024/02/17 06:44:30;;;;;;;4.65;2.60;;;9.00;99.90;;;;;;5062671;28;20206;-82
2024/02/17 06:46:58;;;;;;;0.63;0.63;;;9.10;99.90;;;;;;5060303;28;20234;-82
2024/02/17 06:49:25;;;;;;;0.93;0.93;;;9.00;99.90;;;;;;5077672;28;20388;-82
2024/02/17 06:51:55;;;;;;;2.22;2.13;;;9.10;99.90;;;;;;5082386;28;20266;-80
2024/02/17 06:54:23;;;;;;;2.38;2.25;;;9.10;99.90;;;;;;5087630;28;20206;-81
2024/02/17 06:56:50;;;;;;;1.00;1.00;;;9.10;99.90;;;;;;5066139;28;20219;-81
2024/02/17 06:59:17;;;;;;;2.95;2.38;;;9.10;99.90;;;;;;5090261;28;20261;-81
2024/02/17 07:01:44;;;;;;;1.83;1.75;;;9.20;99.90;;;;;;5086585;28;20525;-81
2024/02/17 07:04:11;;;;;;;3.53;3.35;;;9.20;99.90;;;;;;5084464;28;20513;-81
2024/02/17 07:06:38;;;;;;;2.25;2.15;;;9.20;99.90;;;;;;5060999;28;20215;-81
2024/02/17 07:09:06;;;;;;;2.10;2.00;;;9.10;99.90;;;;;;5074545;28;20273;-83
2024/02/17 07:11:33;;;;;;;0.77;0.77;;;9.10;99.90;;;;;;5080860;28;20458;-82
2024/02/17 07:14:01;;;;;;;1.35;1.25;;;9.10;99.90;;;;;;5088380;28;20207;-82
2024/02/17 07:16:28;;;;;;;1.20;1.13;;;9.20;99.90;;;;;;5085065;28;20214;-82
2024/02/17 07:18:57;;;;;;;1.00;1.00;;;9.20;99.90;;;;;;5088739;28;20215;-82
2024/02/17 07:21:25;;;;;;;0.63;0.63;;;9.20;99.90;;;;;;5095324;28;20236;-82
2024/02/17 07:23:52;;;;;;;1.30;1.30;;;9.20;99.90;;;;;;5100475;28;20247;-81
2024/02/17 07:26:19;;;;;;;2.83;2.72;;;9.40;99.90;;;;;;5104594;28;20195;-81
2024/02/17 07:28:48;;;;;;;1.83;1.75;;;9.10;99.90;;;;;;5092744;28;20265;-80
2024/02/17 07:31:16;;;;;;;0.80;0.80;;;9.30;99.90;;;;;;5087083;28;20274;-82
2024/02/17 07:33:46;;;;;;;1.33;1.23;;;9.40;99.90;;;;;;5093107;28;20210;-82
2024/02/17 07:36:15;;;;;;;6.07;2.38;;;9.40;99.90;;;;;;5090982;28;20221;-82
2024/02/17 07:38:43;;;;;;;1.80;1.70;;;9.40;99.90;;;;;;5089032;28;20226;-82
2024/02/17 07:41:10;;;;;;;1.35;1.20;;;9.50;99.90;;;;;;5082513;28;20206;-81
2024/02/17 07:43:37;;;;;;;1.80;1.73;;;9.40;99.90;;;;;;5085614;28;20432;-81
2024/02/17 07:46:04;;;;;;;1.15;1.15;;;9.40;99.90;;;;;;5084015;28;20202;-80
2024/02/17 07:48:32;;;;;;;1.90;1.48;;;9.40;99.90;;;;;;5078845;28;20212;-80
2024/02/17 07:51:00;;;;;;;1.50;1.40;;;9.40;99.90;;;;;;5067460;28;20224;-81
2024/02/17 07:53:27;;;;;;;2.00;1.88;;;9.40;99.90;;;;;;5088988;28;20269;-82
2024/02/17 07:55:54;;;;;;;1.40;1.30;;;9.40;99.90;;;;;;5085938;28;20195;-81
2024/02/17 07:58:23;;;;;;;0.93;0.93;;;9.40;99.90;;;;;;5087369;28;20260;-82
2024/02/17 08:00:50;;;;;;;0.80;0.80;;;9.40;99.90;;;;;;5089555;28;20195;-82
2024/02/17 08:03:18;;;;;;;0.52;0.52;;;9.40;99.90;;;;;;5089514;28;20462;-85
2024/02/17 08:05:45;;;;;;;2.30;2.20;;;9.40;99.90;;;;;;5062115;28;20242;-80
2024/02/17 08:08:12;;;;;;;1.70;1.63;;;9.40;99.90;;;;;;5079802;28;20206;-80
2024/02/17 08:10:40;;;;;;;4.20;3.80;;;9.50;99.90;;;;;;5076090;28;20199;-81
2024/02/17 08:13:07;;;;;;;1.02;1.02;;;9.50;99.90;;;;;;5079373;28;20472;-81
2024/02/17 08:15:34;;;;;;;2.53;2.42;;;9.60;99.90;;;;;;5090777;28;20751;-82
2024/02/17 08:18:01;;;;;;;1.30;1.30;;;9.60;99.90;;;;;;5070390;28;20227;-83
2024/02/17 08:20:28;;;;;;;1.30;1.25;;;9.70;99.90;;;;;;5092257;28;20241;-81
2024/02/17 08:22:55;;;;;;;1.20;1.20;;;9.70;99.90;;;;;;5090462;28;20232;-82
2024/02/17 08:25:24;;;;;;;3.97;2.88;;;9.80;99.90;;;;;;5088163;28;20387;-82
2024/02/17 08:27:51;;;;;;;2.03;1.30;;;9.90;99.90;;;;;;5093119;28;20578;-81
2024/02/17 08:30:18;;;;;;;1.63;1.60;;;10.00;99.90;;;;;;5085698;28;20207;-81
2024/02/17 08:32:46;;;;;;;2.10;2.00;;;10.00;99.90;;;;;;5091959;28;20202;-81
2024/02/17 08:35:13;;;;;;;2.65;2.55;;;10.00;99.90;;;;;;5086936;28;20203;-80
2024/02/17 08:37:40;;;;;;;1.67;1.40;;;10.10;99.90;;;;;;5073991;28;20547;-80
2024/02/17 08:40:08;;;;;;;4.45;2.13;;;10.10;99.90;;;;;;5050481;28;20329;-82
2024/02/17 08:42:35;;;;;;;1.73;1.65;;;10.20;99.90;;;;;;5065378;28;20349;-83
2024/02/17 08:45:02;;;;;;;2.88;1.73;;;10.20;99.90;;;;;;5066512;28;20221;-82
2024/02/17 08:47:29;;;;;;;0.60;0.60;;;10.30;99.90;;;;;;5082391;28;20245;-82
2024/02/17 08:49:58;;;;;;;1.88;1.77;;;10.30;99.90;;;;;;5084652;28;20232;-82
2024/02/17 08:52:25;;;;;;;1.83;1.73;;;10.40;99.90;;;;;;5084438;28;20215;-79
2024/02/17 08:54:52;;;;;;;0.68;0.68;;;10.40;99.90;;;;;;5084635;28;20269;-78
2024/02/17 08:57:19;;;;;;;2.05;1.95;;;10.50;99.90;;;;;;5077351;28;20234;-78
2024/02/17 08:59:46;;;;;;;3.70;2.85;;;10.60;99.90;;;;;;5070716;28;20199;-79
2024/02/17 09:02:17;;;;;;;1.05;1.05;;;10.70;99.90;;;;;;5080358;28;20199;-80
2024/02/17 09:04:45;;;;;;;0.90;0.90;;;10.80;99.90;;;;;;5078114;28;20202;-79
2024/02/17 09:07:12;;;;;;;0.70;0.70;;;11.10;99.90;;;;;;5084287;28;20283;-81
2024/02/17 09:09:39;;;;;;;1.60;1.35;;;11.20;99.90;;;;;;5063692;28;20460;-79
2024/02/17 09:12:06;;;;;;;1.80;1.70;;;11.20;99.90;;;;;;5078427;28;20232;-79
2024/02/17 09:14:34;;;;;;;3.10;2.10;;;11.10;99.90;;;;;;5083461;28;20463;-78
2024/02/17 09:17:01;;;;;;;0.95;0.95;;;11.20;99.90;;;;;;5082714;28;20271;-81
2024/02/17 09:19:30;;;;;;;1.55;1.52;;;11.00;99.90;;;;;;5082544;28;20242;-80
2024/02/17 09:21:58;;;;;;;1.13;1.13;;;11.10;99.90;;;;;;5085669;28;20269;-82
2024/02/17 09:24:26;;;;;;;1.90;1.55;;;11.00;99.90;;;;;;5081358;28;20207;-87
2024/02/17 09:26:55;;;;;;;1.35;1.35;;;11.00;99.90;;;;;;5064810;28;20237;-82
2024/02/17 09:29:22;;;;;;;1.00;1.00;;;11.00;99.90;;;;;;5088748;28;20206;-79
2024/02/17 09:31:49;;;;;;;0.95;0.95;;;10.90;99.90;;;;;;5084174;28;20238;-81
2024/02/17 09:34:16;;;;;;;0.80;0.80;;;11.00;99.90;;;;;;5083543;28;20230;-84
2024/02/17 09:36:43;;;;;;;0.93;0.93;;;11.20;99.90;;;;;;5091651;28;20262;-82
2024/02/17 09:39:11;;;;;;;2.40;2.30;;;11.20;99.90;;;;;;5070983;28;20426;-84
2024/02/17 09:41:38;;;;;;;2.83;2.47;;;11.30;99.90;;;;;;5087271;28;20205;-80
2024/02/17 09:44:06;;;;;;;3.10;2.90;;;11.40;99.90;;;;;;5079095;28;20207;-82
2024/02/17 09:46:35;;;;;;;2.25;2.15;;;11.30;99.90;;;;;;5067631;28;20233;-79
2024/02/17 09:49:03;;;;;;;1.20;1.20;;;11.20;99.90;;;;;;5079448;28;20210;-79
2024/02/17 09:51:31;;;;;;;1.33;1.33;;;11.20;99.90;;;;;;5081664;28;20234;-78
2024/02/17 09:53:59;;;;;;;1.77;1.67;;;11.20;99.90;;;;;;5067006;28;20202;-81
2024/02/17 09:56:26;;;;;;;3.47;3.25;;;11.20;99.90;;;;;;5100964;28;20214;-81
2024/02/17 09:58:53;;;;;;;0.50;0.50;;;11.60;99.90;;;;;;5090849;28;20231;-82
2024/02/17 10:01:23;;;;;;;2.45;1.73;;;11.70;99.90;;;;;;5089621;28;20196;-78
2024/02/17 10:03:52;;;;;;;0.93;0.90;;;11.70;99.90;;;;;;5093319;28;20457;-81
2024/02/17 10:06:20;;;;;;;1.08;1.05;;;11.70;99.90;;;;;;5078939;28;20226;-79
2024/02/17 10:08:49;;;;;;;0.60;0.60;;;11.70;99.90;;;;;;5088571;28;20199;-79
2024/02/17 10:11:17;;;;;;;5.28;4.90;;;11.90;99.90;;;;;;5073729;28;20221;-80
2024/02/17 10:13:57;;;;;;;1.65;1.58;;;12.00;99.90;;;;;;5082276;28;20273;-78
2024/02/17 10:16:25;;;;;;;0.50;0.50;;;12.10;99.90;;;;;;5068590;28;20207;-78
2024/02/17 10:18:52;;;;;;;1.15;1.15;;;11.90;99.90;;;;;;5085579;28;20220;-81
2024/02/17 10:21:23;;;;;;;1.35;1.20;;;11.70;99.90;;;;;;5064295;28;20218;-78
2024/02/17 10:23:51;;;;;;;1.20;1.20;;;11.60;99.90;;;;;;5082203;28;20197;-79
2024/02/17 10:26:18;;;;;;;1.08;1.08;;;11.60;99.90;;;;;;5069481;28;20217;-77
2024/02/17 10:28:58;;;;;;;2.58;2.38;;;11.60;99.90;;;;;;5075218;28;20269;-78
2024/02/17 10:31:29;;;;;;;0.55;0.55;;;11.60;99.90;;;;;;5055619;28;20201;-78
2024/02/17 10:33:55;;;;;;;1.02;1.02;;;11.60;99.90;;;;;;5079708;28;20263;-79
2024/02/17 10:36:25;;;;;;;0.70;0.70;;;11.50;99.90;;;;;;5050204;28;20276;-80
2024/02/17 10:38:54;;;;;;;2.58;2.38;;;11.30;99.90;;;;;;5067533;28;20419;-80
2024/02/17 10:41:22;;;;;;;0.95;0.95;;;11.30;99.90;;;;;;5078519;28;20199;-80
2024/02/17 10:43:49;;;;;;;0.60;0.60;;;11.20;99.90;;;;;;5081326;28;20219;-78
2024/02/17 10:46:22;;;;;;;0.50;0.50;;;11.20;99.90;;;;;;5073979;28;20522;-81
2024/02/17 10:49:03;;;;;;;0.88;0.88;;;11.10;99.90;;;;;;5079871;28;20267;-80
2024/02/17 10:51:31;;;;;;;0.50;0.50;;;11.00;99.90;;;;;;5068580;28;20400;-82
2024/02/17 10:54:03;;;;;;;0.60;0.60;;;11.10;99.90;;;;;;5079068;28;20233;-80
2024/02/17 10:56:32;;;;;;;0.88;0.88;;;11.20;99.90;;;;;;5076929;28;20468;-80
2024/02/17 10:59:03;;;;;;;1.20;1.10;;;11.20;99.90;;;;;;5071532;28;20223;-80
2024/02/17 11:01:30;;;;;;;1.40;1.30;;;11.40;99.90;;;;;;5070345;28;20372;-79
2024/02/17 11:03:59;;;;;;;0.60;0.60;;;11.60;99.90;;;;;;5088317;28;20201;-78
2024/02/17 11:06:28;;;;;;;0.50;0.50;;;11.60;99.90;;;;;;5086407;28;20210;-80
2024/02/17 11:08:55;;;;;;;3.25;2.42;;;11.50;99.90;;;;;;5071599;28;20242;-79
2024/02/17 11:11:28;;;;;;;0.60;0.60;;;11.40;99.90;;;;;;5071757;28;20264;-81
2024/02/17 11:13:56;;;;;;;0.70;0.70;;;11.50;99.90;;;;;;5091689;28;20387;-79
2024/02/17 11:16:24;;;;;;;0.80;0.80;;;11.50;99.90;;;;;;5084315;28;20206;-79
2024/02/17 11:18:54;;;;;;;2.60;1.05;;;11.60;99.90;;;;;;5088070;28;20286;-79
2024/02/17 11:21:36;;;;;;;0.50;0.50;;;11.70;99.90;;;;;;5096124;28;20200;-82
2024/02/17 11:24:10;;;;;;;4.10;3.10;;;11.70;99.90;;;;;;5085518;28;20387;-80
2024/02/17 11:26:39;;;;;;;0.70;0.70;;;11.70;99.90;;;;;;5089227;28;20195;-80
2024/02/17 11:29:27;;;;;;;0.50;0.50;;;11.70;99.90;;;;;;5087699;28;20196;-81
2024/02/17 11:31:56;;;;;;;1.92;1.83;;;11.70;99.90;;;;;;5074214;28;20219;-80
2024/02/17 11:34:24;;;;;;;0.73;0.73;;;11.60;99.90;;;;;;5079428;28;20200;-81
2024/02/17 11:36:52;;;;;;;0.60;0.60;;;11.70;99.90;;;;;;5078142;28;20204;-81
2024/02/17 11:39:21;;;;;;;0.50;0.50;;;11.80;99.90;;;;;;5079808;28;20273;-81
2024/02/17 11:41:50;;;;;;;1.10;1.10;;;11.70;99.90;;;;;;5088632;28;20196;-79
2024/02/17 11:44:17;;;;;;;0.50;0.50;;;11.60;99.90;;;;;;5077226;28;20449;-82
2024/02/17 11:46:47;;;;;;;0.75;0.75;;;11.40;99.90;;;;;;5059035;28;20215;-81
2024/02/17 11:49:27;;;;;;;2.65;2.55;;;11.40;99.90;;;;;;5084801;28;20196;-80
2024/02/17 11:52:10;;;;;;;1.20;1.20;;;11.40;99.90;;;;;;5079602;28;20257;-79
2024/02/17 11:54:38;;;;;;;0.50;0.50;;;11.30;99.90;;;;;;5091180;28;20207;-81
2024/02/17 11:57:06;;;;;;;0.50;0.50;;;11.50;99.90;;;;;;5061499;28;20199;-81
2024/02/17 11:59:37;;;;;;;0.60;0.60;;;11.60;99.90;;;;;;5087695;28;20223;-81
2024/02/17 12:02:04;;;;;;;0.50;0.50;;;11.80;99.90;;;;;;5091437;28;20263;-80
2024/02/17 12:04:30;;;;;;;0.68;0.68;;;11.60;99.90;;;;;;5069953;28;20231;-84
2024/02/17 12:07:03;;;;;;;0.60;0.60;;;11.80;99.90;;;;;;5076831;28;20240;-82
2024/02/17 12:09:32;;;;;;;1.27;1.17;;;11.90;99.90;;;;;;5081815;28;20199;-80
2024/02/17 12:11:59;;;;;;;0.95;0.95;;;11.90;99.90;;;;;;5095836;28;20196;-83
2024/02/17 12:14:29;;;;;;;0.85;0.85;;;11.90;99.90;;;;;;5084324;28;20192;-80
2024/02/17 12:16:56;;;;;;;0.60;0.60;;;11.80;99.90;;;;;;5103516;28;20186;-82
2024/02/17 12:19:25;;;;;;;0.80;0.80;;;11.60;99.90;;;;;;5089941;28;20253;-79
2024/02/17 12:21:52;;;;;;;0.60;0.60;;;11.50;99.90;;;;;;5068369;28;20223;-79
2024/02/17 12:24:20;;;;;;;0.70;0.70;;;11.30;99.90;;;;;;5090267;28;20199;-81
2024/02/17 12:26:50;;;;;;;0.93;0.93;;;11.30;99.90;;;;;;5086490;28;20208;-81
2024/02/17 12:29:17;;;;;;;0.50;0.50;;;11.30;99.90;;;;;;5084156;28;20221;-81
2024/02/17 12:31:50;;;;;;;0.85;0.85;;;11.30;99.90;;;;;;5093233;28;20203;-83
2024/02/17 12:34:29;;;;;;;1.25;1.25;;;11.30;99.90;;;;;;5083530;28;20199;-83
2024/02/17 12:36:58;;;;;;;0.80;0.80;;;11.50;99.90;;;;;;5082807;28;20195;-79
2024/02/17 12:39:26;;;;;;;0.65;0.65;;;11.50;99.90;;;;;;5083882;28;20227;-80
2024/02/17 12:42:07;;;;;;;0.57;0.57;;;11.70;99.90;;;;;;5107262;28;20194;-79
2024/02/17 12:44:34;;;;;;;0.50;0.50;;;11.80;99.90;;;;;;5092432;28;20255;-80
2024/02/17 12:47:15;;;;;;;0.60;0.60;;;11.90;99.90;;;;;;5085697;28;20256;-79
2024/02/17 12:49:42;;;;;;;1.02;1.02;;;11.90;99.90;;;;;;5091670;28;20643;-82
2024/02/17 12:52:09;;;;;;;0.60;0.60;;;12.10;99.90;;;;;;5075613;28;20241;-82
2024/02/17 12:54:36;;;;;;;0.80;0.80;;;12.10;99.90;;;;;;5080810;28;20614;-80
2024/02/17 12:57:03;;;;;;;0.70;0.70;;;12.00;99.90;;;;;;5084120;28;20466;-80